Accueil
METAR-TAF:

METAR-TAF

Aéroports :

Bilbao, Espagne

Aéroport international de Bilbao

latitude: 43-18N, longitude: 002-56W, altitude: 42 m

Observation

Le bulletin a été fait il y a 37 minutes, à 22:00 UTC
Vent 2 kt de direction variable
Température 6°C
Humidité 81%
Pression 1023 hPa
Visibilité 10 km ou plus
Nuages épars à une hauteur de 4800 ft

METAR: LEBB 272200Z AUTO VRB02KT 9999 SCT048 06/03 Q1023

Heure: 00:37 (22:37 UTC)

Prévision

Le bulletin a été fait il y a 5 heures et 37 minutes, à 17:00 UTC
Prévision valable du 27 à 18 UTC au 28 à 18 UTC
Vent 5 kt de nord
Visibilité 10 km ou plus
Nuages épars à une hauteur de 3000 ft

TAF: LEBB 271700Z 2718/2818 36005KT 9999 SCT030 TX15/2815Z TN04/2806Z

Observations et prévisions météorologiques de plus de 4000 aéroports (messages METAR et TAF).

Les stations disponibles sont représentées par des disques jaunes et rouges sur la carte.

Passer la souris dessus pour voir le nom de la station.

Cliquer dessus pour voir les observations et prévisions météorologiques.

Pour changer de carte: cliquez sur les boutons verts avec une croix noire pour zoomer, sur le bouton vert avec un tiret pour effectuer un zoom arrière, ou sur les flèches vertes pour les cartes adjacentes.


METAR-TAF: